createdAt,value
2022-08-21T00:02:24.180Z,19.70
2022-08-21T00:04:57.048Z,19.60
2022-08-21T00:07:25.247Z,19.70
2022-08-21T00:09:52.734Z,19.70
2022-08-21T00:12:20.200Z,19.80
2022-08-21T00:14:47.500Z,20.00
2022-08-21T00:17:14.368Z,19.80
2022-08-21T00:19:41.354Z,19.70
2022-08-21T00:22:08.520Z,19.60
2022-08-21T00:24:35.530Z,19.70
2022-08-21T00:27:02.363Z,19.60
2022-08-21T00:29:29.265Z,19.60
2022-08-21T00:31:56.185Z,19.70
2022-08-21T00:34:22.986Z,19.80
2022-08-21T00:36:50.164Z,19.50
2022-08-21T00:39:17.126Z,19.50
2022-08-21T00:41:44.246Z,19.40
2022-08-21T00:44:14.872Z,19.50
2022-08-21T00:46:42.821Z,19.40
2022-08-21T00:49:12.481Z,19.50
2022-08-21T00:51:47.608Z,19.50
2022-08-21T00:54:19.048Z,19.30
2022-08-21T00:56:51.161Z,19.30
2022-08-21T00:59:20.826Z,19.10
2022-08-21T01:01:48.251Z,19.30
2022-08-21T01:04:17.339Z,19.00
2022-08-21T01:06:44.619Z,19.00
2022-08-21T01:09:12.768Z,18.90
2022-08-21T01:11:40.363Z,18.80
2022-08-21T01:14:07.299Z,18.90
2022-08-21T01:16:34.392Z,19.00
2022-08-21T01:19:01.335Z,18.80
2022-08-21T01:21:29.031Z,18.80
2022-08-21T01:23:58.137Z,18.70
2022-08-21T01:26:34.224Z,18.70
2022-08-21T01:29:11.222Z,18.70
2022-08-21T01:31:38.224Z,18.50
2022-08-21T01:34:05.563Z,18.50
2022-08-21T01:36:32.471Z,18.40
2022-08-21T01:38:59.427Z,18.40
2022-08-21T01:41:26.227Z,18.60
2022-08-21T01:43:53.007Z,18.60
2022-08-21T01:46:19.791Z,18.60
2022-08-21T01:48:46.946Z,18.60
2022-08-21T01:51:13.912Z,18.50
2022-08-21T01:53:40.835Z,18.70
2022-08-21T01:56:12.195Z,18.50
2022-08-21T01:58:40.748Z,18.40
2022-08-21T02:01:07.989Z,18.20
2022-08-21T02:03:35.939Z,18.20
2022-08-21T02:06:04.726Z,18.00
2022-08-21T02:08:31.644Z,18.10
2022-08-21T02:10:58.459Z,18.10
2022-08-21T02:13:25.491Z,18.10
2022-08-21T02:15:52.296Z,18.20
2022-08-21T02:18:19.711Z,18.20
2022-08-21T02:20:56.053Z,18.20
2022-08-21T02:23:26.967Z,18.10
2022-08-21T02:25:55.726Z,18.30
2022-08-21T02:28:22.568Z,18.20
2022-08-21T02:30:50.610Z,18.30
2022-08-21T02:33:18.164Z,18.50
2022-08-21T02:35:46.875Z,18.50
2022-08-21T02:38:18.133Z,18.40
2022-08-21T02:40:47.935Z,18.40
2022-08-21T02:43:16.287Z,18.40
2022-08-21T02:45:45.317Z,18.30
2022-08-21T02:48:16.989Z,18.30
2022-08-21T02:50:53.571Z,18.20
2022-08-21T02:53:20.830Z,18.30
2022-08-21T02:55:49.962Z,18.30
2022-08-21T02:58:19.647Z,18.40
2022-08-21T03:00:46.534Z,18.30
2022-08-21T03:03:14.344Z,18.40
2022-08-21T03:05:41.926Z,18.30
2022-08-21T03:08:10.503Z,18.40
2022-08-21T03:10:43.618Z,18.40
2022-08-21T03:13:10.872Z,18.20
2022-08-21T03:15:38.706Z,18.00
2022-08-21T03:18:06.317Z,18.10
2022-08-21T03:20:35.051Z,18.10
2022-08-21T03:23:04.367Z,18.00
2022-08-21T03:25:41.115Z,17.90
2022-08-21T03:28:13.318Z,17.90
2022-08-21T03:30:46.197Z,17.70
2022-08-21T03:33:15.457Z,17.90
2022-08-21T03:35:47.250Z,17.80
2022-08-21T03:38:14.287Z,17.70
2022-08-21T03:40:43.097Z,17.70
2022-08-21T03:43:10.619Z,17.80
2022-08-21T03:45:38.357Z,17.60
2022-08-21T03:48:06.881Z,17.40
2022-08-21T03:50:40.767Z,17.40
2022-08-21T03:53:09.149Z,17.50
2022-08-21T03:55:48.646Z,17.50
2022-08-21T03:58:18.010Z,17.40
2022-08-21T04:00:50.521Z,17.40
2022-08-21T04:03:18.471Z,17.50
2022-08-21T04:05:46.782Z,17.50
2022-08-21T04:08:15.485Z,17.50
2022-08-21T04:10:44.928Z,17.40
2022-08-21T04:13:12.901Z,17.30
2022-08-21T04:15:40.265Z,17.30
2022-08-21T04:18:07.088Z,17.30
2022-08-21T04:20:34.954Z,17.30
2022-08-21T04:23:02.814Z,17.20
2022-08-21T04:25:29.796Z,17.20
2022-08-21T04:27:57.006Z,17.10
2022-08-21T04:30:28.126Z,17.10
2022-08-21T04:32:57.409Z,17.10
2022-08-21T04:35:27.077Z,17.10
2022-08-21T04:37:53.874Z,17.10
2022-08-21T04:40:22.458Z,17.10
2022-08-21T04:43:00.945Z,17.10
2022-08-21T04:45:31.359Z,17.20
2022-08-21T04:48:00.405Z,17.30
2022-08-21T04:50:48.552Z,17.20
2022-08-21T04:53:23.252Z,17.10
2022-08-21T04:55:53.011Z,17.10
2022-08-21T04:58:22.177Z,17.10
2022-08-21T05:00:49.408Z,16.90
2022-08-21T05:03:18.272Z,16.90
2022-08-21T05:05:45.181Z,17.00
2022-08-21T05:08:16.648Z,17.10
2022-08-21T05:10:45.006Z,17.20
2022-08-21T05:13:13.729Z,17.10
2022-08-21T05:15:41.395Z,17.10
2022-08-21T05:18:08.188Z,17.00
2022-08-21T05:20:36.428Z,17.20
2022-08-21T05:23:10.887Z,17.20
2022-08-21T05:25:38.262Z,17.30
2022-08-21T05:28:06.833Z,17.40
2022-08-21T05:30:34.785Z,17.50
2022-08-21T05:33:03.708Z,17.40
2022-08-21T05:35:30.711Z,17.30
2022-08-21T05:37:57.977Z,17.30
2022-08-21T05:40:25.760Z,17.40
2022-08-21T05:42:55.373Z,17.30
2022-08-21T05:45:42.922Z,17.30
2022-08-21T05:48:22.420Z,17.40
2022-08-21T05:50:50.727Z,16.90
2022-08-21T05:53:19.619Z,17.10
2022-08-21T05:55:47.312Z,17.30
2022-08-21T05:58:20.143Z,17.40
2022-08-21T06:00:48.877Z,17.40
2022-08-21T06:03:20.513Z,17.30
2022-08-21T06:05:48.011Z,17.40
2022-08-21T06:08:17.241Z,17.30
2022-08-21T06:10:45.208Z,17.30
2022-08-21T06:13:12.763Z,17.20
2022-08-21T06:15:39.894Z,17.30
2022-08-21T06:18:06.788Z,17.30
2022-08-21T06:20:34.987Z,17.40
2022-08-21T06:23:02.390Z,17.50
2022-08-21T06:25:30.066Z,17.70
2022-08-21T06:28:09.993Z,17.60
2022-08-21T06:30:39.510Z,17.50
2022-08-21T06:33:07.935Z,17.50
2022-08-21T06:35:35.576Z,17.30
2022-08-21T06:38:02.716Z,17.30
2022-08-21T06:40:30.922Z,17.30
2022-08-21T06:43:10.822Z,17.50
2022-08-21T06:45:42.467Z,17.60
2022-08-21T06:48:09.548Z,17.80
2022-08-21T06:50:37.079Z,17.90
2022-08-21T06:53:07.468Z,17.60
2022-08-21T06:55:34.902Z,17.70
2022-08-21T06:58:01.935Z,17.80
2022-08-21T07:00:29.255Z,17.90
2022-08-21T07:02:56.219Z,18.00
2022-08-21T07:05:25.937Z,18.10
2022-08-21T07:07:52.833Z,18.10
2022-08-21T07:10:22.498Z,18.20
2022-08-21T07:13:00.101Z,18.20
2022-08-21T07:15:29.498Z,18.20
2022-08-21T07:17:58.194Z,18.10
2022-08-21T07:20:25.169Z,18.20
2022-08-21T07:22:52.156Z,17.90
2022-08-21T07:25:19.171Z,18.00
2022-08-21T07:27:46.264Z,18.10
2022-08-21T07:30:13.344Z,18.40
2022-08-21T07:32:40.296Z,18.40
2022-08-21T07:35:08.362Z,18.30
2022-08-21T07:37:35.381Z,18.50
2022-08-21T07:40:02.315Z,18.60
2022-08-21T07:42:29.198Z,18.60
2022-08-21T07:44:56.622Z,18.80
2022-08-21T07:47:38.657Z,18.70
2022-08-21T07:50:12.266Z,18.80
2022-08-21T07:52:40.039Z,19.00
2022-08-21T07:55:08.327Z,19.00
2022-08-21T07:57:35.207Z,19.00
2022-08-21T08:00:02.774Z,19.10
2022-08-21T08:02:31.320Z,19.00
2022-08-21T08:05:02.868Z,19.10
2022-08-21T08:07:29.656Z,19.20
2022-08-21T08:09:56.607Z,19.40
2022-08-21T08:12:23.413Z,19.60
2022-08-21T08:14:50.197Z,19.70
2022-08-21T08:17:17.058Z,19.60
2022-08-21T08:19:44.509Z,19.60
2022-08-21T08:22:20.343Z,19.60
2022-08-21T08:24:49.377Z,19.70
2022-08-21T08:27:17.205Z,19.90
2022-08-21T08:29:45.312Z,20.10
2022-08-21T08:32:12.398Z,20.00
2022-08-21T08:34:40.143Z,20.10
2022-08-21T08:37:09.650Z,20.20
2022-08-21T08:39:37.250Z,20.40
2022-08-21T08:42:32.943Z,20.40
2022-08-21T08:45:09.385Z,20.60
2022-08-21T08:47:39.751Z,20.90
2022-08-21T08:50:16.829Z,21.00
2022-08-21T08:52:55.341Z,20.80
2022-08-21T08:55:27.692Z,20.90
2022-08-21T08:57:55.608Z,20.90
2022-08-21T09:00:24.330Z,21.10
2022-08-21T09:02:57.078Z,21.30
2022-08-21T09:05:30.342Z,21.20
2022-08-21T09:08:23.764Z,21.20
2022-08-21T09:11:04.576Z,21.20
2022-08-21T09:13:38.740Z,21.30
2022-08-21T09:16:24.327Z,21.50
2022-08-21T09:18:54.108Z,21.70
2022-08-21T09:21:45.694Z,22.00
2022-08-21T09:24:33.231Z,22.00
2022-08-21T09:27:10.636Z,22.10
2022-08-21T09:29:41.087Z,21.80
2022-08-21T09:32:36.919Z,21.90
2022-08-21T09:35:09.909Z,21.90
2022-08-21T09:37:46.835Z,21.80
2022-08-21T09:40:36.939Z,21.90
2022-08-21T09:43:11.767Z,22.10
2022-08-21T09:45:42.426Z,21.90
2022-08-21T09:48:15.153Z,21.80
2022-08-21T09:50:43.565Z,22.00
2022-08-21T09:53:25.033Z,22.20
2022-08-21T09:56:16.889Z,22.50
2022-08-21T09:58:46.545Z,22.60
2022-08-21T10:01:20.347Z,22.30
2022-08-21T10:03:49.967Z,22.20
2022-08-21T10:06:27.524Z,21.90
2022-08-21T10:09:19.833Z,21.80
2022-08-21T10:12:11.305Z,22.00
2022-08-21T10:14:56.568Z,22.10
2022-08-21T10:17:26.122Z,22.30
2022-08-21T10:20:20.544Z,22.10
2022-08-21T10:23:21.722Z,22.40
2022-08-21T10:26:34.367Z,22.40
2022-08-21T10:29:09.987Z,22.40
2022-08-21T10:31:54.485Z,22.30
2022-08-21T10:34:50.741Z,22.60
2022-08-21T10:37:41.997Z,22.80
2022-08-21T10:40:08.847Z,22.80
2022-08-21T10:42:47.526Z,22.80
2022-08-21T10:45:45.082Z,23.00
2022-08-21T10:48:23.707Z,23.10
2022-08-21T10:50:56.552Z,23.10
2022-08-21T10:53:35.624Z,23.20
2022-08-21T10:56:14.501Z,23.40
2022-08-21T10:58:58.526Z,23.70
2022-08-21T11:01:43.915Z,23.60
2022-08-21T11:04:20.505Z,23.90
2022-08-21T11:06:54.378Z,23.90
2022-08-21T11:09:24.975Z,23.80
2022-08-21T11:12:10.916Z,23.70
2022-08-21T11:15:29.159Z,23.40
2022-08-21T11:18:23.932Z,23.70
2022-08-21T11:21:26.947Z,23.30
2022-08-21T11:24:05.787Z,23.20
2022-08-21T11:26:45.826Z,23.50
2022-08-21T11:29:27.826Z,23.60
2022-08-21T11:32:28.068Z,23.70
2022-08-21T11:35:07.154Z,23.40
2022-08-21T11:37:45.556Z,23.50
2022-08-21T11:40:47.656Z,23.40
2022-08-21T11:43:36.969Z,23.40
2022-08-21T11:46:26.887Z,23.40
2022-08-21T11:49:38.124Z,23.20
2022-08-21T11:52:31.351Z,23.30
2022-08-21T11:55:23.566Z,23.50
2022-08-21T11:57:53.580Z,23.70
2022-08-21T12:00:44.959Z,24.00
2022-08-21T12:03:29.810Z,23.90
2022-08-21T12:06:24.409Z,24.20
2022-08-21T12:09:04.932Z,24.50
2022-08-21T12:11:32.188Z,24.50
2022-08-21T12:14:00.873Z,24.90
2022-08-21T12:16:45.658Z,25.00
2022-08-21T12:19:30.273Z,25.30
2022-08-21T12:22:11.885Z,25.90
2022-08-21T12:24:48.872Z,25.70
2022-08-21T12:27:22.609Z,25.80
2022-08-21T12:30:00.567Z,26.30
2022-08-21T12:32:50.679Z,26.10
2022-08-21T12:35:24.966Z,26.20
2022-08-21T12:38:09.418Z,25.90
2022-08-21T12:41:02.584Z,25.60
2022-08-21T12:43:44.265Z,25.90
2022-08-21T12:46:27.982Z,26.20
2022-08-21T12:49:02.479Z,26.60
2022-08-21T12:51:38.616Z,26.60
2022-08-21T12:54:05.455Z,26.30
2022-08-21T12:56:34.665Z,25.90
2022-08-21T12:59:07.626Z,25.70
2022-08-21T13:01:50.336Z,25.60
2022-08-21T13:04:22.700Z,25.70
2022-08-21T13:06:52.804Z,25.40
2022-08-21T13:09:23.952Z,25.20
2022-08-21T13:11:52.468Z,25.90
2022-08-21T13:14:26.847Z,27.00
2022-08-21T13:16:56.055Z,27.50
2022-08-21T13:19:24.262Z,27.30
2022-08-21T13:21:53.364Z,26.90
2022-08-21T13:24:42.381Z,26.60
2022-08-21T13:27:24.289Z,26.90
2022-08-21T13:30:07.601Z,27.40
2022-08-21T13:32:38.861Z,28.00
2022-08-21T13:35:15.055Z,29.10
2022-08-21T13:37:43.901Z,29.80
2022-08-21T13:40:15.982Z,30.20
2022-08-21T13:42:45.731Z,29.90
2022-08-21T13:45:19.464Z,28.80
2022-08-21T13:47:48.755Z,28.20
2022-08-21T13:50:17.375Z,26.90
2022-08-21T13:53:23.060Z,26.80
2022-08-21T13:55:49.949Z,26.50
2022-08-21T13:58:27.295Z,26.90
2022-08-21T14:00:56.099Z,27.30
2022-08-21T14:03:34.428Z,27.20
2022-08-21T14:06:01.801Z,26.40
2022-08-21T14:08:32.251Z,26.90
2022-08-21T14:11:00.639Z,27.70
2022-08-21T14:13:38.185Z,28.50
2022-08-21T14:16:16.894Z,28.40
2022-08-21T14:19:11.655Z,28.80
2022-08-21T14:21:42.171Z,29.40
2022-08-21T14:24:14.280Z,30.00
2022-08-21T14:26:52.015Z,28.80
2022-08-21T14:29:23.701Z,28.00
2022-08-21T14:31:52.889Z,28.00
2022-08-21T14:34:20.166Z,27.80
2022-08-21T14:36:47.904Z,27.70
2022-08-21T14:39:14.771Z,27.30
2022-08-21T14:41:43.502Z,26.90
2022-08-21T14:44:11.212Z,26.70
2022-08-21T14:46:42.584Z,26.80
2022-08-21T14:49:27.790Z,27.00
2022-08-21T14:51:58.383Z,28.10
2022-08-21T14:54:31.782Z,28.80
2022-08-21T14:57:09.579Z,29.00
2022-08-21T14:59:37.371Z,28.10
2022-08-21T15:02:05.480Z,27.60
2022-08-21T15:04:33.386Z,27.30
2022-08-21T15:07:00.273Z,27.60
2022-08-21T15:09:27.147Z,27.90
2022-08-21T15:11:58.143Z,28.00
2022-08-21T15:14:28.417Z,27.80
2022-08-21T15:16:55.988Z,27.90
2022-08-21T15:19:23.042Z,27.60
2022-08-21T15:21:50.149Z,27.70
2022-08-21T15:24:17.078Z,28.20
2022-08-21T15:26:45.135Z,28.60
2022-08-21T15:29:12.004Z,29.40
2022-08-21T15:31:55.097Z,29.40
2022-08-21T15:34:23.330Z,29.00
2022-08-21T15:36:56.239Z,28.50
2022-08-21T15:39:31.247Z,28.20
2022-08-21T15:41:59.465Z,27.50
2022-08-21T15:44:28.356Z,26.70
2022-08-21T15:46:56.495Z,27.00
2022-08-21T15:49:24.065Z,28.00
2022-08-21T15:51:51.029Z,29.10
2022-08-21T15:54:18.236Z,29.80
2022-08-21T15:56:49.458Z,30.50
2022-08-21T15:59:19.794Z,31.10
2022-08-21T16:01:47.225Z,30.60
2022-08-21T16:04:24.555Z,31.20
2022-08-21T16:06:55.201Z,30.40
2022-08-21T16:09:25.362Z,30.30
2022-08-21T16:11:53.478Z,31.10
2022-08-21T16:14:20.403Z,30.70
2022-08-21T16:16:47.281Z,30.40
2022-08-21T16:19:14.778Z,29.20
2022-08-21T16:21:41.901Z,28.70
2022-08-21T16:24:08.851Z,28.00
2022-08-21T16:26:35.834Z,27.50
2022-08-21T16:29:05.140Z,28.30
2022-08-21T16:31:33.377Z,28.90
2022-08-21T16:34:00.873Z,29.10
2022-08-21T16:36:27.883Z,30.00
2022-08-21T16:38:59.129Z,30.60
2022-08-21T16:41:30.495Z,31.50
2022-08-21T16:43:57.387Z,30.90
2022-08-21T16:46:24.862Z,30.20
2022-08-21T16:48:51.702Z,29.60
2022-08-21T16:51:18.665Z,29.90
2022-08-21T16:53:45.623Z,29.80
2022-08-21T16:56:15.652Z,30.50
2022-08-21T16:58:47.617Z,30.00
2022-08-21T17:01:17.884Z,29.00
2022-08-21T17:03:47.131Z,29.20
2022-08-21T17:06:16.106Z,29.20
2022-08-21T17:08:44.478Z,29.00
2022-08-21T17:11:37.323Z,28.80
2022-08-21T17:14:22.255Z,28.10
2022-08-21T17:16:54.404Z,28.40
2022-08-21T17:19:21.538Z,28.80
2022-08-21T17:21:49.078Z,29.60
2022-08-21T17:24:16.221Z,29.60
2022-08-21T17:26:44.696Z,29.40
2022-08-21T17:29:14.581Z,29.70
2022-08-21T17:31:58.094Z,30.20
2022-08-21T17:34:40.404Z,30.50
2022-08-21T17:37:07.673Z,31.40
2022-08-21T17:39:35.982Z,30.80
2022-08-21T17:42:08.211Z,30.60
2022-08-21T17:44:41.097Z,29.20
2022-08-21T17:47:08.697Z,29.70
2022-08-21T17:49:36.172Z,30.00
2022-08-21T17:52:03.381Z,30.30
2022-08-21T17:54:30.430Z,31.40
2022-08-21T17:56:57.519Z,31.90
2022-08-21T17:59:24.739Z,31.50
2022-08-21T18:01:52.268Z,31.40
2022-08-21T18:04:19.084Z,31.20
2022-08-21T18:06:46.278Z,30.60
2022-08-21T18:09:13.646Z,30.60
2022-08-21T18:11:42.977Z,30.80
2022-08-21T18:14:10.982Z,30.40
2022-08-21T18:16:37.936Z,30.60
2022-08-21T18:19:09.375Z,30.40
2022-08-21T18:21:36.249Z,29.80
2022-08-21T18:24:03.779Z,28.50
2022-08-21T18:26:38.384Z,27.30
2022-08-21T18:29:08.048Z,26.70
2022-08-21T18:31:38.076Z,26.30
2022-08-21T18:34:11.886Z,26.30
2022-08-21T18:36:39.268Z,26.30
2022-08-21T18:39:34.413Z,26.00
2022-08-21T18:41:54.888Z,25.80
2022-08-21T18:44:24.498Z,25.50
2022-08-21T18:47:06.609Z,25.20
2022-08-21T18:49:33.662Z,25.60
2022-08-21T18:52:01.069Z,25.80
2022-08-21T18:54:31.268Z,25.80
2022-08-21T18:56:58.431Z,25.90
2022-08-21T18:59:29.800Z,25.70
2022-08-21T19:01:58.648Z,25.60
2022-08-21T19:04:43.610Z,25.60
2022-08-21T19:07:13.603Z,25.60
2022-08-21T19:09:41.434Z,25.70
2022-08-21T19:12:14.024Z,25.80
2022-08-21T19:14:41.530Z,25.90
2022-08-21T19:17:09.014Z,26.10
2022-08-21T19:19:36.764Z,26.20
2022-08-21T19:22:06.474Z,26.20
2022-08-21T19:24:53.355Z,26.30
2022-08-21T19:27:20.151Z,26.30
2022-08-21T19:29:50.510Z,26.20
2022-08-21T19:32:20.339Z,26.10
2022-08-21T19:34:49.922Z,25.90
2022-08-21T19:37:20.376Z,25.90
2022-08-21T19:39:50.321Z,25.70
2022-08-21T19:42:21.258Z,25.70
2022-08-21T19:44:50.962Z,25.70
2022-08-21T19:47:21.246Z,25.50
2022-08-21T19:49:59.387Z,25.30
2022-08-21T19:52:26.798Z,25.30
2022-08-21T19:54:53.655Z,25.20
2022-08-21T19:57:20.511Z,25.10
2022-08-21T19:59:47.472Z,25.10
2022-08-21T20:02:18.451Z,25.00
2022-08-21T20:04:53.472Z,24.80
2022-08-21T20:07:26.584Z,24.70
2022-08-21T20:10:08.912Z,24.40
2022-08-21T20:12:37.598Z,24.10
2022-08-21T20:15:07.758Z,24.00
2022-08-21T20:17:35.104Z,23.90
2022-08-21T20:20:01.974Z,23.90
2022-08-21T20:22:30.561Z,23.80
2022-08-21T20:24:57.393Z,23.70
2022-08-21T20:27:27.601Z,23.60
2022-08-21T20:29:54.864Z,23.60
2022-08-21T20:32:22.347Z,23.60
2022-08-21T20:37:38.205Z,23.60
2022-08-21T20:40:11.562Z,23.60
2022-08-21T20:42:47.312Z,23.70
2022-08-21T20:45:26.019Z,23.50
2022-08-21T20:47:57.833Z,23.30
2022-08-21T20:50:28.964Z,23.20
2022-08-21T20:53:13.396Z,23.10
2022-08-21T20:55:47.412Z,23.00
2022-08-21T20:58:29.914Z,23.00
2022-08-21T21:01:02.000Z,22.90
2022-08-21T21:03:50.996Z,22.90
2022-08-21T21:06:26.187Z,22.70
2022-08-21T21:09:03.888Z,22.60
2022-08-21T21:11:39.633Z,22.60
2022-08-21T21:14:23.252Z,22.60
2022-08-21T21:16:55.525Z,21.90
2022-08-21T21:19:48.840Z,20.70
2022-08-21T21:22:26.794Z,20.80
2022-08-21T21:25:19.936Z,20.80
2022-08-21T21:27:57.114Z,20.80
2022-08-21T21:30:34.730Z,20.50
2022-08-21T21:33:03.147Z,20.30
2022-08-21T21:35:36.634Z,20.10
2022-08-21T21:38:19.986Z,20.10
2022-08-21T21:41:08.970Z,19.90
2022-08-21T21:43:54.768Z,20.10
2022-08-21T21:46:48.854Z,20.30
2022-08-21T21:49:52.866Z,19.90
2022-08-21T21:53:01.588Z,19.60
2022-08-21T21:56:05.824Z,19.50
2022-08-21T21:58:54.488Z,19.80
2022-08-21T22:01:44.191Z,19.50
2022-08-21T22:04:24.601Z,19.60
2022-08-21T22:07:04.602Z,19.80
2022-08-21T22:09:44.893Z,19.60
2022-08-21T22:12:50.095Z,19.50
2022-08-21T22:15:33.633Z,19.60
2022-08-21T22:18:10.074Z,19.50
2022-08-21T22:20:40.499Z,19.20
2022-08-21T22:23:15.945Z,18.90
2022-08-21T22:25:47.087Z,18.60
2022-08-21T22:28:25.549Z,18.60
2022-08-21T22:31:22.749Z,18.80
2022-08-21T22:34:17.736Z,19.00
2022-08-21T22:36:57.388Z,19.20
2022-08-21T22:39:39.292Z,18.90
2022-08-21T22:42:16.082Z,18.70
2022-08-21T22:48:05.857Z,18.90
2022-08-21T22:50:47.821Z,18.90
2022-08-21T22:53:30.409Z,19.20
2022-08-21T22:56:01.510Z,19.30
2022-08-21T22:58:37.128Z,19.30
2022-08-21T23:01:14.298Z,19.30
2022-08-21T23:03:57.406Z,19.30
2022-08-21T23:06:35.160Z,19.30
2022-08-21T23:09:02.869Z,19.20
2022-08-21T23:11:42.821Z,19.00
2022-08-21T23:14:11.953Z,18.40
2022-08-21T23:16:48.078Z,18.20
2022-08-21T23:19:43.074Z,18.00
2022-08-21T23:22:43.677Z,18.40
2022-08-21T23:25:45.490Z,18.30
2022-08-21T23:28:23.646Z,18.30
2022-08-21T23:31:02.008Z,18.30
2022-08-21T23:33:43.830Z,18.30
2022-08-21T23:36:32.332Z,18.30
2022-08-21T23:39:37.336Z,18.30
2022-08-21T23:42:22.929Z,18.40
2022-08-21T23:44:55.280Z,18.70
2022-08-21T23:47:59.703Z,18.80
2022-08-21T23:50:39.708Z,18.90
2022-08-21T23:53:36.161Z,18.60
2022-08-21T23:56:24.461Z,18.50
2022-08-21T23:59:09.962Z,18.10
